sensor_id;sensor_type;location;lat;lon;timestamp;temperature;humidity
63313;DHT22;49442;45.640;13.812;2023-03-14T00:00:15;12.00;99.90
63313;DHT22;49442;45.640;13.812;2023-03-14T00:02:41;12.00;99.90
63313;DHT22;49442;45.640;13.812;2023-03-14T00:05:08;11.90;99.90
63313;DHT22;49442;45.640;13.812;2023-03-14T00:07:38;11.90;99.90
63313;DHT22;49442;45.640;13.812;2023-03-14T00:10:09;11.90;99.90
63313;DHT22;49442;45.640;13.812;2023-03-14T00:12:35;12.00;99.90
63313;DHT22;49442;45.640;13.812;2023-03-14T00:15:01;12.00;99.90
63313;DHT22;49442;45.640;13.812;2023-03-14T00:17:29;12.00;99.90
63313;DHT22;49442;45.640;13.812;2023-03-14T00:19:55;12.00;99.90
63313;DHT22;49442;45.640;13.812;2023-03-14T00:22:21;12.10;99.90
63313;DHT22;49442;45.640;13.812;2023-03-14T00:24:47;12.10;99.90
63313;DHT22;49442;45.640;13.812;2023-03-14T00:27:13;12.00;99.90
63313;DHT22;49442;45.640;13.812;2023-03-14T00:29:39;12.00;99.90
63313;DHT22;49442;45.640;13.812;2023-03-14T00:32:04;12.00;99.90
63313;DHT22;49442;45.640;13.812;2023-03-14T00:34:31;12.00;99.90
63313;DHT22;49442;45.640;13.812;2023-03-14T00:36:57;11.90;99.90
63313;DHT22;49442;45.640;13.812;2023-03-14T00:39:23;11.90;99.90
63313;DHT22;49442;45.640;13.812;2023-03-14T00:41:48;11.90;99.90
63313;DHT22;49442;45.640;13.812;2023-03-14T00:44:14;11.90;99.90
63313;DHT22;49442;45.640;13.812;2023-03-14T00:46:40;12.00;99.90
63313;DHT22;49442;45.640;13.812;2023-03-14T00:49:05;11.90;99.90
63313;DHT22;49442;45.640;13.812;2023-03-14T00:51:31;11.90;99.90
63313;DHT22;49442;45.640;13.812;2023-03-14T00:53:57;11.90;99.90
63313;DHT22;49442;45.640;13.812;2023-03-14T00:56:22;11.90;99.90
63313;DHT22;49442;45.640;13.812;2023-03-14T00:58:48;11.90;99.90
63313;DHT22;49442;45.640;13.812;2023-03-14T01:01:16;11.90;99.90
63313;DHT22;49442;45.640;13.812;2023-03-14T01:03:43;12.00;99.90
63313;DHT22;49442;45.640;13.812;2023-03-14T01:08:34;12.10;99.90
63313;DHT22;49442;45.640;13.812;2023-03-14T01:11:20;12.10;99.90
63313;DHT22;49442;45.640;13.812;2023-03-14T01:13:47;12.30;99.90
63313;DHT22;49442;45.640;13.812;2023-03-14T01:16:17;12.30;99.90
63313;DHT22;49442;45.640;13.812;2023-03-14T01:18:43;12.30;99.90
63313;DHT22;49442;45.640;13.812;2023-03-14T01:21:24;12.40;99.90
63313;DHT22;49442;45.640;13.812;2023-03-14T01:23:55;12.40;99.90
63313;DHT22;49442;45.640;13.812;2023-03-14T01:26:23;12.40;99.90
63313;DHT22;49442;45.640;13.812;2023-03-14T01:28:51;12.50;99.90
63313;DHT22;49442;45.640;13.812;2023-03-14T01:31:17;12.50;99.90
63313;DHT22;49442;45.640;13.812;2023-03-14T01:33:43;12.50;99.90
63313;DHT22;49442;45.640;13.812;2023-03-14T01:36:10;12.60;99.90
63313;DHT22;49442;45.640;13.812;2023-03-14T01:38:37;12.60;99.90
63313;DHT22;49442;45.640;13.812;2023-03-14T01:41:04;12.60;99.90
63313;DHT22;49442;45.640;13.812;2023-03-14T01:43:30;12.70;99.90
63313;DHT22;49442;45.640;13.812;2023-03-14T01:54:07;12.70;99.90
63313;DHT22;49442;45.640;13.812;2023-03-14T01:56:35;12.70;99.90
63313;DHT22;49442;45.640;13.812;2023-03-14T01:59:04;12.70;99.90
63313;DHT22;49442;45.640;13.812;2023-03-14T02:01:32;12.70;99.90
63313;DHT22;49442;45.640;13.812;2023-03-14T02:04:00;12.80;99.90
63313;DHT22;49442;45.640;13.812;2023-03-14T02:06:34;12.80;99.90
63313;DHT22;49442;45.640;13.812;2023-03-14T02:09:01;12.80;99.90
63313;DHT22;49442;45.640;13.812;2023-03-14T02:11:29;12.80;99.90
63313;DHT22;49442;45.640;13.812;2023-03-14T02:13:57;12.80;99.90
63313;DHT22;49442;45.640;13.812;2023-03-14T02:16:23;12.80;99.90
63313;DHT22;49442;45.640;13.812;2023-03-14T02:18:49;12.80;99.90
63313;DHT22;49442;45.640;13.812;2023-03-14T02:21:27;12.90;99.90
63313;DHT22;49442;45.640;13.812;2023-03-14T02:24:09;12.90;99.90
63313;DHT22;49442;45.640;13.812;2023-03-14T02:26:40;12.90;99.90
63313;DHT22;49442;45.640;13.812;2023-03-14T02:29:08;12.90;99.90
63313;DHT22;49442;45.640;13.812;2023-03-14T02:31:35;12.90;99.90
63313;DHT22;49442;45.640;13.812;2023-03-14T02:34:01;12.90;99.90
63313;DHT22;49442;45.640;13.812;2023-03-14T02:36:28;12.90;99.90
63313;DHT22;49442;45.640;13.812;2023-03-14T02:39:11;12.90;99.90
63313;DHT22;49442;45.640;13.812;2023-03-14T02:41:39;13.00;99.90
63313;DHT22;49442;45.640;13.812;2023-03-14T02:44:04;13.00;99.90
63313;DHT22;49442;45.640;13.812;2023-03-14T02:46:30;13.10;99.90
63313;DHT22;49442;45.640;13.812;2023-03-14T02:49:04;13.00;99.90
63313;DHT22;49442;45.640;13.812;2023-03-14T02:51:32;13.10;99.90
63313;DHT22;49442;45.640;13.812;2023-03-14T02:53:58;13.10;99.90
63313;DHT22;49442;45.640;13.812;2023-03-14T02:56:24;13.00;99.90
63313;DHT22;49442;45.640;13.812;2023-03-14T02:58:50;13.00;99.90
63313;DHT22;49442;45.640;13.812;2023-03-14T03:01:16;13.10;99.90
63313;DHT22;49442;45.640;13.812;2023-03-14T03:03:41;13.10;99.90
63313;DHT22;49442;45.640;13.812;2023-03-14T03:06:07;13.10;99.90
63313;DHT22;49442;45.640;13.812;2023-03-14T03:08:33;13.10;99.90
63313;DHT22;49442;45.640;13.812;2023-03-14T03:10:59;13.10;99.90
63313;DHT22;49442;45.640;13.812;2023-03-14T03:13:25;13.00;99.90
63313;DHT22;49442;45.640;13.812;2023-03-14T03:15:52;13.10;99.90
63313;DHT22;49442;45.640;13.812;2023-03-14T03:18:18;13.20;99.90
63313;DHT22;49442;45.640;13.812;2023-03-14T03:20:43;13.20;99.90
63313;DHT22;49442;45.640;13.812;2023-03-14T03:23:09;13.10;99.90
63313;DHT22;49442;45.640;13.812;2023-03-14T03:25:35;13.20;99.90
63313;DHT22;49442;45.640;13.812;2023-03-14T03:28:01;13.20;99.90
63313;DHT22;49442;45.640;13.812;2023-03-14T03:30:27;13.20;99.90
63313;DHT22;49442;45.640;13.812;2023-03-14T03:32:53;13.20;99.90
63313;DHT22;49442;45.640;13.812;2023-03-14T03:35:18;13.20;99.90
63313;DHT22;49442;45.640;13.812;2023-03-14T03:37:44;13.10;99.90
63313;DHT22;49442;45.640;13.812;2023-03-14T03:40:10;13.20;99.90
63313;DHT22;49442;45.640;13.812;2023-03-14T03:42:36;13.20;99.90
63313;DHT22;49442;45.640;13.812;2023-03-14T03:45:03;13.20;99.90
63313;DHT22;49442;45.640;13.812;2023-03-14T03:47:30;13.20;99.90
63313;DHT22;49442;45.640;13.812;2023-03-14T03:49:56;13.10;99.90
63313;DHT22;49442;45.640;13.812;2023-03-14T03:52:22;13.10;99.90
63313;DHT22;49442;45.640;13.812;2023-03-14T03:54:48;13.10;99.90
63313;DHT22;49442;45.640;13.812;2023-03-14T03:57:13;13.10;99.90
63313;DHT22;49442;45.640;13.812;2023-03-14T03:59:39;13.00;99.90
63313;DHT22;49442;45.640;13.812;2023-03-14T04:02:08;13.00;99.90
63313;DHT22;49442;45.640;13.812;2023-03-14T04:04:33;13.00;99.90
63313;DHT22;49442;45.640;13.812;2023-03-14T04:06:59;13.00;99.90
63313;DHT22;49442;45.640;13.812;2023-03-14T04:09:25;13.00;99.90
63313;DHT22;49442;45.640;13.812;2023-03-14T04:11:50;13.00;99.90
63313;DHT22;49442;45.640;13.812;2023-03-14T04:14:16;13.00;99.90
63313;DHT22;49442;45.640;13.812;2023-03-14T04:16:42;13.00;99.90
63313;DHT22;49442;45.640;13.812;2023-03-14T04:19:07;13.00;99.90
63313;DHT22;49442;45.640;13.812;2023-03-14T04:21:33;13.00;99.90
63313;DHT22;49442;45.640;13.812;2023-03-14T04:23:58;13.00;99.90
63313;DHT22;49442;45.640;13.812;2023-03-14T04:26:24;13.00;99.90
63313;DHT22;49442;45.640;13.812;2023-03-14T04:28:50;13.00;99.90
63313;DHT22;49442;45.640;13.812;2023-03-14T04:31:18;13.00;99.90
63313;DHT22;49442;45.640;13.812;2023-03-14T04:33:45;13.00;99.90
63313;DHT22;49442;45.640;13.812;2023-03-14T04:36:11;13.00;99.90
63313;DHT22;49442;45.640;13.812;2023-03-14T04:38:37;13.00;99.90
63313;DHT22;49442;45.640;13.812;2023-03-14T04:41:03;13.00;99.90
63313;DHT22;49442;45.640;13.812;2023-03-14T04:43:29;13.00;99.90
63313;DHT22;49442;45.640;13.812;2023-03-14T04:45:55;13.00;99.90
63313;DHT22;49442;45.640;13.812;2023-03-14T04:48:22;13.00;99.90
63313;DHT22;49442;45.640;13.812;2023-03-14T04:50:48;13.00;99.90
63313;DHT22;49442;45.640;13.812;2023-03-14T04:53:14;13.00;99.90
63313;DHT22;49442;45.640;13.812;2023-03-14T04:55:40;13.00;99.90
63313;DHT22;49442;45.640;13.812;2023-03-14T04:58:06;12.90;99.90
63313;DHT22;49442;45.640;13.812;2023-03-14T05:00:31;12.90;99.90
63313;DHT22;49442;45.640;13.812;2023-03-14T05:02:57;12.90;99.90
63313;DHT22;49442;45.640;13.812;2023-03-14T05:05:24;12.90;99.90
63313;DHT22;49442;45.640;13.812;2023-03-14T05:07:49;12.90;99.90
63313;DHT22;49442;45.640;13.812;2023-03-14T05:10:15;12.90;99.90
63313;DHT22;49442;45.640;13.812;2023-03-14T05:12:41;12.90;99.90
63313;DHT22;49442;45.640;13.812;2023-03-14T05:15:07;12.90;99.90
63313;DHT22;49442;45.640;13.812;2023-03-14T05:17:33;12.90;99.90
63313;DHT22;49442;45.640;13.812;2023-03-14T05:19:59;12.90;99.90
63313;DHT22;49442;45.640;13.812;2023-03-14T05:22:25;12.90;99.90
63313;DHT22;49442;45.640;13.812;2023-03-14T05:24:51;12.90;99.90
63313;DHT22;49442;45.640;13.812;2023-03-14T05:27:18;13.00;99.90
63313;DHT22;49442;45.640;13.812;2023-03-14T05:29:44;13.00;99.90
63313;DHT22;49442;45.640;13.812;2023-03-14T05:32:10;13.10;99.90
63313;DHT22;49442;45.640;13.812;2023-03-14T05:34:35;13.10;99.90
63313;DHT22;49442;45.640;13.812;2023-03-14T05:37:01;13.00;99.90
63313;DHT22;49442;45.640;13.812;2023-03-14T05:39:27;13.00;99.90
63313;DHT22;49442;45.640;13.812;2023-03-14T05:41:52;13.00;99.90
63313;DHT22;49442;45.640;13.812;2023-03-14T05:44:21;13.00;99.90
63313;DHT22;49442;45.640;13.812;2023-03-14T05:46:46;12.90;99.90
63313;DHT22;49442;45.640;13.812;2023-03-14T05:49:12;12.90;99.90
63313;DHT22;49442;45.640;13.812;2023-03-14T05:51:38;12.90;99.90
63313;DHT22;49442;45.640;13.812;2023-03-14T05:54:03;12.90;99.90
63313;DHT22;49442;45.640;13.812;2023-03-14T05:56:29;12.90;99.90
63313;DHT22;49442;45.640;13.812;2023-03-14T05:58:54;12.90;99.90
63313;DHT22;49442;45.640;13.812;2023-03-14T06:01:20;12.90;99.90
63313;DHT22;49442;45.640;13.812;2023-03-14T06:03:46;13.00;99.90
63313;DHT22;49442;45.640;13.812;2023-03-14T06:06:11;13.00;99.90
63313;DHT22;49442;45.640;13.812;2023-03-14T06:08:37;12.90;99.90
63313;DHT22;49442;45.640;13.812;2023-03-14T06:11:03;12.90;99.90
63313;DHT22;49442;45.640;13.812;2023-03-14T06:13:29;12.90;99.90
63313;DHT22;49442;45.640;13.812;2023-03-14T06:15:55;13.00;99.90
63313;DHT22;49442;45.640;13.812;2023-03-14T06:18:20;13.00;99.90
63313;DHT22;49442;45.640;13.812;2023-03-14T06:20:46;13.00;99.90
63313;DHT22;49442;45.640;13.812;2023-03-14T06:23:12;13.00;99.90
63313;DHT22;49442;45.640;13.812;2023-03-14T06:25:38;13.00;99.90
63313;DHT22;49442;45.640;13.812;2023-03-14T06:28:03;13.10;99.90
63313;DHT22;49442;45.640;13.812;2023-03-14T06:30:29;13.10;99.90
63313;DHT22;49442;45.640;13.812;2023-03-14T06:32:55;13.10;99.90
63313;DHT22;49442;45.640;13.812;2023-03-14T06:35:21;13.10;99.90
63313;DHT22;49442;45.640;13.812;2023-03-14T06:37:47;13.10;99.90
63313;DHT22;49442;45.640;13.812;2023-03-14T06:40:13;13.10;99.90
63313;DHT22;49442;45.640;13.812;2023-03-14T06:42:43;13.10;99.90
63313;DHT22;49442;45.640;13.812;2023-03-14T06:45:09;13.10;99.90
63313;DHT22;49442;45.640;13.812;2023-03-14T06:47:35;13.10;99.90
63313;DHT22;49442;45.640;13.812;2023-03-14T06:50:01;13.00;99.90
63313;DHT22;49442;45.640;13.812;2023-03-14T06:52:27;12.90;99.90
63313;DHT22;49442;45.640;13.812;2023-03-14T06:54:52;12.80;99.90
63313;DHT22;49442;45.640;13.812;2023-03-14T06:57:18;12.80;99.90
63313;DHT22;49442;45.640;13.812;2023-03-14T06:59:44;12.80;99.90
63313;DHT22;49442;45.640;13.812;2023-03-14T07:02:13;12.80;99.90
63313;DHT22;49442;45.640;13.812;2023-03-14T07:04:38;12.80;99.90
63313;DHT22;49442;45.640;13.812;2023-03-14T07:07:04;12.90;99.90
63313;DHT22;49442;45.640;13.812;2023-03-14T07:09:31;13.00;99.90
63313;DHT22;49442;45.640;13.812;2023-03-14T07:11:56;13.10;99.90
63313;DHT22;49442;45.640;13.812;2023-03-14T07:14:22;13.10;99.90
63313;DHT22;49442;45.640;13.812;2023-03-14T07:16:48;13.10;99.90
63313;DHT22;49442;45.640;13.812;2023-03-14T07:19:13;13.10;99.90
63313;DHT22;49442;45.640;13.812;2023-03-14T07:21:41;13.20;99.90
63313;DHT22;49442;45.640;13.812;2023-03-14T07:24:07;13.20;99.90
63313;DHT22;49442;45.640;13.812;2023-03-14T07:26:33;13.20;99.90
63313;DHT22;49442;45.640;13.812;2023-03-14T07:28:59;13.20;99.90
63313;DHT22;49442;45.640;13.812;2023-03-14T07:31:25;13.10;99.90
63313;DHT22;49442;45.640;13.812;2023-03-14T07:33:51;12.90;99.90
63313;DHT22;49442;45.640;13.812;2023-03-14T07:36:17;12.90;99.90
63313;DHT22;49442;45.640;13.812;2023-03-14T07:38:43;12.90;99.90
63313;DHT22;49442;45.640;13.812;2023-03-14T07:41:11;13.00;99.90
63313;DHT22;49442;45.640;13.812;2023-03-14T07:43:37;13.10;99.90
63313;DHT22;49442;45.640;13.812;2023-03-14T07:46:03;13.10;99.90
63313;DHT22;49442;45.640;13.812;2023-03-14T07:48:28;13.10;99.90
63313;DHT22;49442;45.640;13.812;2023-03-14T07:50:55;13.10;99.90
63313;DHT22;49442;45.640;13.812;2023-03-14T07:53:21;13.20;99.90
63313;DHT22;49442;45.640;13.812;2023-03-14T07:55:47;13.20;99.90
63313;DHT22;49442;45.640;13.812;2023-03-14T07:58:16;13.30;99.90
63313;DHT22;49442;45.640;13.812;2023-03-14T08:00:43;13.30;99.90
63313;DHT22;49442;45.640;13.812;2023-03-14T08:03:08;13.40;99.90
63313;DHT22;49442;45.640;13.812;2023-03-14T08:05:35;13.40;99.90
63313;DHT22;49442;45.640;13.812;2023-03-14T08:08:01;13.40;99.90
63313;DHT22;49442;45.640;13.812;2023-03-14T08:10:27;13.40;99.90
63313;DHT22;49442;45.640;13.812;2023-03-14T08:12:55;13.40;99.90
63313;DHT22;49442;45.640;13.812;2023-03-14T08:15:22;13.40;99.90
63313;DHT22;49442;45.640;13.812;2023-03-14T08:17:48;13.40;99.90
63313;DHT22;49442;45.640;13.812;2023-03-14T08:20:20;13.40;99.90
63313;DHT22;49442;45.640;13.812;2023-03-14T08:22:46;13.40;99.90
63313;DHT22;49442;45.640;13.812;2023-03-14T08:25:13;13.50;99.90
63313;DHT22;49442;45.640;13.812;2023-03-14T08:27:38;13.50;99.90
63313;DHT22;49442;45.640;13.812;2023-03-14T08:30:15;13.50;99.90
63313;DHT22;49442;45.640;13.812;2023-03-14T08:32:41;13.50;99.90
63313;DHT22;49442;45.640;13.812;2023-03-14T08:35:07;13.50;99.90
63313;DHT22;49442;45.640;13.812;2023-03-14T08:37:34;13.50;99.90
63313;DHT22;49442;45.640;13.812;2023-03-14T08:40:01;13.60;99.90
63313;DHT22;49442;45.640;13.812;2023-03-14T08:42:26;13.60;99.90
63313;DHT22;49442;45.640;13.812;2023-03-14T08:44:52;13.60;99.90
63313;DHT22;49442;45.640;13.812;2023-03-14T08:47:18;13.60;99.90
63313;DHT22;49442;45.640;13.812;2023-03-14T08:49:44;13.60;99.90
63313;DHT22;49442;45.640;13.812;2023-03-14T08:52:10;13.70;99.90
63313;DHT22;49442;45.640;13.812;2023-03-14T08:54:36;13.60;99.90
63313;DHT22;49442;45.640;13.812;2023-03-14T08:57:01;13.50;99.90
63313;DHT22;49442;45.640;13.812;2023-03-14T08:59:27;13.50;99.90
63313;DHT22;49442;45.640;13.812;2023-03-14T09:01:56;13.50;99.90
63313;DHT22;49442;45.640;13.812;2023-03-14T09:04:21;13.50;99.90
63313;DHT22;49442;45.640;13.812;2023-03-14T09:06:47;13.50;99.90
63313;DHT22;49442;45.640;13.812;2023-03-14T09:09:13;13.40;99.90
63313;DHT22;49442;45.640;13.812;2023-03-14T09:11:39;13.40;99.90
63313;DHT22;49442;45.640;13.812;2023-03-14T09:14:05;13.40;99.90
63313;DHT22;49442;45.640;13.812;2023-03-14T09:16:31;13.40;99.90
63313;DHT22;49442;45.640;13.812;2023-03-14T09:18:56;13.40;99.90
63313;DHT22;49442;45.640;13.812;2023-03-14T09:21:25;13.40;99.90
63313;DHT22;49442;45.640;13.812;2023-03-14T09:23:51;13.20;99.90
63313;DHT22;49442;45.640;13.812;2023-03-14T09:26:16;13.00;99.90
63313;DHT22;49442;45.640;13.812;2023-03-14T09:28:42;12.80;99.90
63313;DHT22;49442;45.640;13.812;2023-03-14T09:31:09;12.80;99.90
63313;DHT22;49442;45.640;13.812;2023-03-14T09:33:36;12.80;99.90
63313;DHT22;49442;45.640;13.812;2023-03-14T09:36:02;12.70;99.90
63313;DHT22;49442;45.640;13.812;2023-03-14T09:38:28;12.70;99.90
63313;DHT22;49442;45.640;13.812;2023-03-14T09:40:55;12.80;99.90
63313;DHT22;49442;45.640;13.812;2023-03-14T09:43:24;12.70;99.90
63313;DHT22;49442;45.640;13.812;2023-03-14T09:45:51;12.70;99.90
63313;DHT22;49442;45.640;13.812;2023-03-14T09:48:29;12.70;99.90
63313;DHT22;49442;45.640;13.812;2023-03-14T09:50:58;12.70;99.90
63313;DHT22;49442;45.640;13.812;2023-03-14T09:53:26;12.70;99.90
63313;DHT22;49442;45.640;13.812;2023-03-14T09:55:53;12.70;99.90
63313;DHT22;49442;45.640;13.812;2023-03-14T09:58:23;12.70;99.90
63313;DHT22;49442;45.640;13.812;2023-03-14T10:00:55;12.80;99.90
63313;DHT22;49442;45.640;13.812;2023-03-14T10:03:25;12.80;99.90
63313;DHT22;49442;45.640;13.812;2023-03-14T10:05:51;12.90;99.90
63313;DHT22;49442;45.640;13.812;2023-03-14T10:08:17;12.90;99.90
63313;DHT22;49442;45.640;13.812;2023-03-14T10:10:43;13.00;99.90
63313;DHT22;49442;45.640;13.812;2023-03-14T10:13:21;13.00;99.90
63313;DHT22;49442;45.640;13.812;2023-03-14T10:15:59;13.10;99.90
63313;DHT22;49442;45.640;13.812;2023-03-14T10:18:25;13.20;99.90
63313;DHT22;49442;45.640;13.812;2023-03-14T10:21:09;13.20;99.90
63313;DHT22;49442;45.640;13.812;2023-03-14T10:23:42;13.20;99.90
63313;DHT22;49442;45.640;13.812;2023-03-14T10:26:13;13.20;99.90
63313;DHT22;49442;45.640;13.812;2023-03-14T10:28:45;13.20;99.90
63313;DHT22;49442;45.640;13.812;2023-03-14T10:31:11;13.20;99.90
63313;DHT22;49442;45.640;13.812;2023-03-14T10:33:38;13.20;99.90
63313;DHT22;49442;45.640;13.812;2023-03-14T10:36:17;13.20;99.90
63313;DHT22;49442;45.640;13.812;2023-03-14T10:38:44;13.20;99.90
63313;DHT22;49442;45.640;13.812;2023-03-14T10:41:19;13.30;99.90
63313;DHT22;49442;45.640;13.812;2023-03-14T10:43:55;13.30;99.90
63313;DHT22;49442;45.640;13.812;2023-03-14T10:46:24;13.30;99.90
63313;DHT22;49442;45.640;13.812;2023-03-14T10:48:51;13.30;99.90
63313;DHT22;49442;45.640;13.812;2023-03-14T10:51:25;13.30;99.90
63313;DHT22;49442;45.640;13.812;2023-03-14T10:54:24;13.30;99.90
63313;DHT22;49442;45.640;13.812;2023-03-14T10:57:00;13.30;99.90
63313;DHT22;49442;45.640;13.812;2023-03-14T10:59:32;13.20;99.90
63313;DHT22;49442;45.640;13.812;2023-03-14T11:02:10;13.20;99.90
63313;DHT22;49442;45.640;13.812;2023-03-14T11:05:12;13.10;99.90
63313;DHT22;49442;45.640;13.812;2023-03-14T11:07:43;13.10;99.90
63313;DHT22;49442;45.640;13.812;2023-03-14T11:21:20;12.90;99.90
63313;DHT22;49442;45.640;13.812;2023-03-14T11:27:15;12.70;99.90
63313;DHT22;49442;45.640;13.812;2023-03-14T11:33:21;12.70;99.90
63313;DHT22;49442;45.640;13.812;2023-03-14T11:40:44;12.70;99.90
63313;DHT22;49442;45.640;13.812;2023-03-14T11:43:37;12.70;99.90
63313;DHT22;49442;45.640;13.812;2023-03-14T11:46:17;12.70;99.90
63313;DHT22;49442;45.640;13.812;2023-03-14T11:51:34;12.70;99.90
63313;DHT22;49442;45.640;13.812;2023-03-14T11:57:01;12.60;99.90
63313;DHT22;49442;45.640;13.812;2023-03-14T12:03:14;12.70;99.90
63313;DHT22;49442;45.640;13.812;2023-03-14T12:09:05;12.80;99.90
63313;DHT22;49442;45.640;13.812;2023-03-14T12:11:47;12.80;99.90
63313;DHT22;49442;45.640;13.812;2023-03-14T12:14:21;12.80;99.90
63313;DHT22;49442;45.640;13.812;2023-03-14T12:16:50;12.90;99.90
63313;DHT22;49442;45.640;13.812;2023-03-14T12:24:34;12.90;99.90
63313;DHT22;49442;45.640;13.812;2023-03-14T12:27:03;13.00;99.90
63313;DHT22;49442;45.640;13.812;2023-03-14T12:29:29;12.90;99.90
63313;DHT22;49442;45.640;13.812;2023-03-14T12:34:44;12.90;99.90
63313;DHT22;49442;45.640;13.812;2023-03-14T12:50:14;12.90;99.90
63313;DHT22;49442;45.640;13.812;2023-03-14T12:53:07;12.90;99.90
63313;DHT22;49442;45.640;13.812;2023-03-14T13:01:18;12.80;99.90
63313;DHT22;49442;45.640;13.812;2023-03-14T13:04:01;12.80;99.90
63313;DHT22;49442;45.640;13.812;2023-03-14T13:06:50;12.80;99.90
63313;DHT22;49442;45.640;13.812;2023-03-14T13:12:14;12.80;99.90
63313;DHT22;49442;45.640;13.812;2023-03-14T13:14:45;12.90;99.90
63313;DHT22;49442;45.640;13.812;2023-03-14T13:17:19;12.90;99.90
63313;DHT22;49442;45.640;13.812;2023-03-14T13:19:52;12.90;99.90
63313;DHT22;49442;45.640;13.812;2023-03-14T13:22:29;12.90;99.90
63313;DHT22;49442;45.640;13.812;2023-03-14T13:25:05;12.80;99.90
63313;DHT22;49442;45.640;13.812;2023-03-14T13:27:33;12.80;99.90
63313;DHT22;49442;45.640;13.812;2023-03-14T13:30:11;12.80;99.90
63313;DHT22;49442;45.640;13.812;2023-03-14T13:32:42;12.70;99.90
63313;DHT22;49442;45.640;13.812;2023-03-14T13:35:19;12.70;99.90
63313;DHT22;49442;45.640;13.812;2023-03-14T13:37:46;12.70;99.90
63313;DHT22;49442;45.640;13.812;2023-03-14T13:40:32;12.70;99.90
63313;DHT22;49442;45.640;13.812;2023-03-14T13:43:29;12.60;99.90
63313;DHT22;49442;45.640;13.812;2023-03-14T13:46:16;12.60;99.90
63313;DHT22;49442;45.640;13.812;2023-03-14T13:48:57;12.50;99.90
63313;DHT22;49442;45.640;13.812;2023-03-14T13:51:24;12.50;99.90
63313;DHT22;49442;45.640;13.812;2023-03-14T13:53:54;12.50;99.90
63313;DHT22;49442;45.640;13.812;2023-03-14T13:56:26;12.40;99.90
63313;DHT22;49442;45.640;13.812;2023-03-14T13:58:54;12.40;99.90
63313;DHT22;49442;45.640;13.812;2023-03-14T14:01:23;12.40;99.90
63313;DHT22;49442;45.640;13.812;2023-03-14T14:03:51;12.40;99.90
63313;DHT22;49442;45.640;13.812;2023-03-14T14:06:35;12.50;99.90
63313;DHT22;49442;45.640;13.812;2023-03-14T14:09:17;12.60;99.90
63313;DHT22;49442;45.640;13.812;2023-03-14T14:11:49;12.60;99.90
63313;DHT22;49442;45.640;13.812;2023-03-14T14:14:23;12.60;99.90
63313;DHT22;49442;45.640;13.812;2023-03-14T14:16:51;12.60;99.90
63313;DHT22;49442;45.640;13.812;2023-03-14T14:19:19;12.60;99.90
63313;DHT22;49442;45.640;13.812;2023-03-14T14:21:47;12.50;99.90
63313;DHT22;49442;45.640;13.812;2023-03-14T14:24:14;12.50;99.90
63313;DHT22;49442;45.640;13.812;2023-03-14T14:26:54;12.50;99.90
63313;DHT22;49442;45.640;13.812;2023-03-14T14:29:35;12.50;99.90
63313;DHT22;49442;45.640;13.812;2023-03-14T14:32:20;12.50;99.90
63313;DHT22;49442;45.640;13.812;2023-03-14T14:34:57;12.40;99.90
63313;DHT22;49442;45.640;13.812;2023-03-14T14:37:27;12.30;99.90
63313;DHT22;49442;45.640;13.812;2023-03-14T14:39:59;12.20;99.90
63313;DHT22;49442;45.640;13.812;2023-03-14T14:42:28;12.10;99.90
63313;DHT22;49442;45.640;13.812;2023-03-14T14:44:56;12.10;99.90
63313;DHT22;49442;45.640;13.812;2023-03-14T14:47:24;12.00;99.90
63313;DHT22;49442;45.640;13.812;2023-03-14T14:49:52;12.00;99.90
63313;DHT22;49442;45.640;13.812;2023-03-14T14:52:44;12.00;99.90
63313;DHT22;49442;45.640;13.812;2023-03-14T14:55:18;12.00;99.90
63313;DHT22;49442;45.640;13.812;2023-03-14T14:57:55;12.00;99.90
63313;DHT22;49442;45.640;13.812;2023-03-14T15:00:26;12.00;99.90
63313;DHT22;49442;45.640;13.812;2023-03-14T15:02:55;12.10;99.90
63313;DHT22;49442;45.640;13.812;2023-03-14T15:05:26;12.10;99.90
63313;DHT22;49442;45.640;13.812;2023-03-14T15:07:53;12.10;99.90
63313;DHT22;49442;45.640;13.812;2023-03-14T15:10:21;12.10;99.90
63313;DHT22;49442;45.640;13.812;2023-03-14T15:12:48;12.00;99.90
63313;DHT22;49442;45.640;13.812;2023-03-14T15:15:14;12.00;99.90
63313;DHT22;49442;45.640;13.812;2023-03-14T15:17:40;12.00;99.90
63313;DHT22;49442;45.640;13.812;2023-03-14T15:20:11;12.00;99.90
63313;DHT22;49442;45.640;13.812;2023-03-14T15:22:41;11.90;99.90
63313;DHT22;49442;45.640;13.812;2023-03-14T15:25:07;11.90;99.90
63313;DHT22;49442;45.640;13.812;2023-03-14T15:27:33;11.90;99.90
63313;DHT22;49442;45.640;13.812;2023-03-14T15:29:59;11.90;99.90
63313;DHT22;49442;45.640;13.812;2023-03-14T15:32:26;11.80;99.90
63313;DHT22;49442;45.640;13.812;2023-03-14T15:34:55;11.80;99.90
63313;DHT22;49442;45.640;13.812;2023-03-14T15:37:22;11.80;99.90
63313;DHT22;49442;45.640;13.812;2023-03-14T15:39:48;11.80;99.90
63313;DHT22;49442;45.640;13.812;2023-03-14T15:42:14;11.70;99.90
63313;DHT22;49442;45.640;13.812;2023-03-14T15:44:39;11.70;99.90
63313;DHT22;49442;45.640;13.812;2023-03-14T15:47:06;11.70;99.90
63313;DHT22;49442;45.640;13.812;2023-03-14T15:49:32;11.80;99.90
63313;DHT22;49442;45.640;13.812;2023-03-14T15:51:58;11.70;99.90
63313;DHT22;49442;45.640;13.812;2023-03-14T15:54:24;11.70;99.90
63313;DHT22;49442;45.640;13.812;2023-03-14T15:56:57;11.70;99.90
63313;DHT22;49442;45.640;13.812;2023-03-14T15:59:23;11.80;99.90
63313;DHT22;49442;45.640;13.812;2023-03-14T16:01:49;11.70;99.90
63313;DHT22;49442;45.640;13.812;2023-03-14T16:04:16;11.70;99.90
63313;DHT22;49442;45.640;13.812;2023-03-14T16:06:42;11.70;99.90
63313;DHT22;49442;45.640;13.812;2023-03-14T16:09:12;11.70;99.90
63313;DHT22;49442;45.640;13.812;2023-03-14T16:11:39;11.70;99.90
63313;DHT22;49442;45.640;13.812;2023-03-14T16:14:05;11.70;99.90
63313;DHT22;49442;45.640;13.812;2023-03-14T16:16:31;11.80;99.90
63313;DHT22;49442;45.640;13.812;2023-03-14T16:18:57;11.80;99.90
63313;DHT22;49442;45.640;13.812;2023-03-14T16:21:23;11.80;99.90
63313;DHT22;49442;45.640;13.812;2023-03-14T16:23:49;11.90;99.90
63313;DHT22;49442;45.640;13.812;2023-03-14T16:26:17;11.90;99.90
63313;DHT22;49442;45.640;13.812;2023-03-14T16:28:44;11.90;99.90
63313;DHT22;49442;45.640;13.812;2023-03-14T16:31:13;11.90;99.90
63313;DHT22;49442;45.640;13.812;2023-03-14T16:33:40;11.90;99.90
63313;DHT22;49442;45.640;13.812;2023-03-14T16:36:07;12.00;99.90
63313;DHT22;49442;45.640;13.812;2023-03-14T16:38:35;12.00;99.90